createdAt,value
2023-04-21T00:02:15.878Z,8.20
2023-04-21T00:04:45.558Z,8.20
2023-04-21T00:07:14.682Z,8.20
2023-04-21T00:09:41.900Z,8.20
2023-04-21T00:12:09.174Z,8.20
2023-04-21T00:14:35.952Z,8.20
2023-04-21T00:17:02.982Z,8.30
2023-04-21T00:19:29.689Z,8.20
2023-04-21T00:21:58.858Z,8.20
2023-04-21T00:24:26.662Z,8.20
2023-04-21T00:26:53.374Z,8.20
2023-04-21T00:29:20.216Z,8.20
2023-04-21T00:31:47.358Z,8.20
2023-04-21T00:34:14.394Z,8.20
2023-04-21T00:36:41.168Z,8.30
2023-04-21T00:39:07.926Z,8.20
2023-04-21T00:41:36.059Z,8.20
2023-04-21T00:44:09.790Z,8.20
2023-04-21T00:46:37.042Z,8.10
2023-04-21T00:49:06.166Z,8.20
2023-04-21T00:51:34.624Z,8.20
2023-04-21T00:54:04.210Z,8.10
2023-04-21T00:56:32.379Z,8.10
2023-04-21T00:59:03.679Z,8.00
2023-04-21T01:01:32.018Z,8.00
2023-04-21T01:03:59.741Z,8.00
2023-04-21T01:06:34.815Z,7.90
2023-04-21T01:09:03.623Z,7.90
2023-04-21T01:11:31.392Z,7.90
2023-04-21T01:13:58.108Z,7.90
2023-04-21T01:16:25.000Z,7.90
2023-04-21T01:18:54.637Z,7.80
2023-04-21T01:21:21.978Z,7.60
2023-04-21T01:23:48.767Z,7.70
2023-04-21T01:26:19.197Z,7.70
2023-04-21T01:28:47.648Z,7.70
2023-04-21T01:31:18.184Z,7.70
2023-04-21T01:33:45.545Z,7.80
2023-04-21T01:36:12.254Z,7.80
2023-04-21T01:38:42.413Z,7.60
2023-04-21T01:41:10.664Z,7.60
2023-04-21T01:43:37.498Z,7.60
2023-04-21T01:46:07.445Z,7.60
2023-04-21T01:48:34.213Z,7.60
2023-04-21T01:51:00.790Z,7.60
2023-04-21T01:53:27.420Z,7.60
2023-04-21T01:55:54.451Z,7.50
2023-04-21T01:58:21.958Z,7.60
2023-04-21T02:00:48.568Z,7.50
2023-04-21T02:03:15.439Z,7.50
2023-04-21T02:05:45.096Z,7.40
2023-04-21T02:08:11.666Z,7.50
2023-04-21T02:10:38.275Z,7.40
2023-04-21T02:13:05.055Z,7.40
2023-04-21T02:15:31.743Z,7.40
2023-04-21T02:17:58.483Z,7.40
2023-04-21T02:20:25.428Z,7.40
2023-04-21T02:22:52.130Z,7.40
2023-04-21T02:25:19.988Z,7.40
2023-04-21T02:27:46.717Z,7.40
2023-04-21T02:30:13.579Z,7.40
2023-04-21T02:32:40.414Z,7.40
2023-04-21T02:35:07.522Z,7.40
2023-04-21T02:37:35.630Z,7.30
2023-04-21T02:40:02.680Z,7.30
2023-04-21T02:42:29.327Z,7.30
2023-04-21T02:44:55.915Z,7.30
2023-04-21T02:47:24.098Z,7.20
2023-04-21T02:49:50.743Z,7.30
2023-04-21T02:52:17.439Z,7.30
2023-04-21T02:54:44.075Z,7.20
2023-04-21T02:57:10.805Z,7.30
2023-04-21T02:59:37.392Z,7.40
2023-04-21T03:02:03.981Z,7.30
2023-04-21T03:04:32.383Z,7.30
2023-04-21T03:06:59.113Z,7.30
2023-04-21T03:09:25.888Z,7.30
2023-04-21T03:11:52.507Z,7.20
2023-04-21T03:14:19.192Z,7.30
2023-04-21T03:16:47.273Z,7.30
2023-04-21T03:19:17.189Z,7.30
2023-04-21T03:21:43.928Z,7.40
2023-04-21T03:24:11.245Z,7.40
2023-04-21T03:26:40.440Z,7.40
2023-04-21T03:29:07.270Z,7.40
2023-04-21T03:31:33.943Z,7.40
2023-04-21T03:34:00.553Z,7.30
2023-04-21T03:36:27.297Z,7.30
2023-04-21T03:38:54.126Z,7.30
2023-04-21T03:41:20.915Z,7.30
2023-04-21T03:43:50.986Z,7.40
2023-04-21T03:46:21.606Z,7.40
2023-04-21T03:48:48.798Z,7.30
2023-04-21T03:51:15.706Z,7.30
2023-04-21T03:53:42.476Z,7.30
2023-04-21T03:56:09.341Z,7.40
2023-04-21T03:58:36.734Z,7.30
2023-04-21T04:01:06.470Z,7.30
2023-04-21T04:03:33.940Z,7.30
2023-04-21T04:06:01.174Z,7.30
2023-04-21T04:08:27.891Z,7.30
2023-04-21T04:10:55.186Z,7.30
2023-04-21T04:13:22.470Z,7.30
2023-04-21T04:15:50.187Z,7.10
2023-04-21T04:18:17.083Z,7.10
2023-04-21T04:20:43.672Z,7.10
2023-04-21T04:23:10.401Z,7.00
2023-04-21T04:25:37.264Z,6.90
2023-04-21T04:28:05.320Z,7.00
2023-04-21T04:30:33.195Z,7.00
2023-04-21T04:32:59.845Z,7.00
2023-04-21T04:35:26.605Z,7.10
2023-04-21T04:37:54.645Z,7.10
2023-04-21T04:40:22.370Z,7.10
2023-04-21T04:42:49.036Z,7.10
2023-04-21T04:45:16.602Z,7.10
2023-04-21T04:47:44.386Z,7.10
2023-04-21T04:50:11.055Z,7.10
2023-04-21T04:52:37.808Z,7.10
2023-04-21T04:55:04.800Z,7.10
2023-04-21T04:57:31.592Z,7.20
2023-04-21T04:59:58.308Z,7.10
2023-04-21T05:02:25.255Z,7.10
2023-04-21T05:04:52.401Z,7.30
2023-04-21T05:07:19.524Z,7.30
2023-04-21T05:09:46.313Z,7.30
2023-04-21T05:12:13.047Z,7.10
2023-04-21T05:14:39.758Z,7.20
2023-04-21T05:17:06.421Z,7.30
2023-04-21T05:19:36.524Z,7.30
2023-04-21T05:22:06.375Z,7.30
2023-04-21T05:24:34.099Z,7.40
2023-04-21T05:27:02.854Z,7.40
2023-04-21T05:29:34.112Z,7.40
2023-04-21T05:32:01.525Z,7.40
2023-04-21T05:34:31.313Z,7.50
2023-04-21T05:36:58.224Z,7.40
2023-04-21T05:39:26.912Z,7.50
2023-04-21T05:41:53.481Z,7.60
2023-04-21T05:44:20.301Z,7.70
2023-04-21T05:50:22.078Z,7.70
2023-04-21T05:52:48.764Z,7.80
2023-04-21T05:55:15.494Z,7.80
2023-04-21T05:57:42.210Z,7.80
2023-04-21T06:00:09.547Z,7.80
2023-04-21T06:02:37.480Z,7.90
2023-04-21T06:05:04.615Z,7.90
2023-04-21T06:07:31.462Z,7.90
2023-04-21T06:10:33.549Z,7.90
2023-04-21T06:13:00.512Z,8.00
2023-04-21T06:15:27.242Z,8.00
2023-04-21T06:17:57.263Z,8.00
2023-04-21T06:20:24.032Z,8.00
2023-04-21T06:22:50.895Z,8.00
2023-04-21T06:25:17.677Z,8.10
2023-04-21T06:27:45.619Z,8.20
2023-04-21T06:30:12.953Z,8.30
2023-04-21T06:32:40.290Z,8.30
2023-04-21T06:35:07.287Z,8.40
2023-04-21T06:37:34.017Z,8.50
2023-04-21T06:40:00.804Z,8.60
2023-04-21T06:42:27.392Z,8.70
2023-04-21T06:44:54.024Z,8.80
2023-04-21T06:47:20.692Z,8.80
2023-04-21T06:49:47.424Z,8.80
2023-04-21T06:52:14.441Z,8.90
2023-04-21T06:54:41.189Z,9.00
2023-04-21T06:57:07.874Z,9.10
2023-04-21T06:59:34.689Z,9.20
2023-04-21T07:02:01.714Z,9.30
2023-04-21T07:04:32.053Z,9.20
2023-04-21T07:07:01.096Z,9.20
2023-04-21T07:09:29.216Z,9.30
2023-04-21T07:11:55.908Z,9.50
2023-04-21T07:14:22.544Z,9.70
2023-04-21T07:16:49.218Z,9.80
2023-04-21T07:19:15.951Z,9.90
2023-04-21T07:21:42.626Z,10.00
2023-04-21T07:24:09.223Z,10.00
2023-04-21T07:26:35.805Z,10.10
2023-04-21T07:29:02.477Z,10.10
2023-04-21T07:31:29.127Z,10.20
2023-04-21T07:33:55.885Z,10.20
2023-04-21T07:36:22.528Z,10.30
2023-04-21T07:38:49.246Z,10.30
2023-04-21T07:41:15.945Z,10.30
2023-04-21T07:43:42.490Z,10.40
2023-04-21T07:46:09.159Z,10.50
2023-04-21T07:48:35.816Z,10.50
2023-04-21T07:51:03.296Z,10.60
2023-04-21T07:53:30.543Z,10.70
2023-04-21T07:55:57.256Z,10.80
2023-04-21T07:58:23.922Z,10.60
2023-04-21T08:00:50.875Z,10.60
2023-04-21T08:03:17.567Z,10.60
2023-04-21T08:05:44.527Z,10.70
2023-04-21T08:08:14.048Z,10.90
2023-04-21T08:10:42.074Z,11.00
2023-04-21T08:13:08.669Z,11.00
2023-04-21T08:15:35.341Z,11.10
2023-04-21T08:18:02.134Z,11.10
2023-04-21T08:20:29.007Z,11.20
2023-04-21T08:22:55.844Z,11.20
2023-04-21T08:25:25.110Z,11.20
2023-04-21T08:27:52.077Z,11.30
2023-04-21T08:30:20.198Z,11.30
2023-04-21T08:32:46.976Z,11.40
2023-04-21T08:35:13.911Z,11.50
2023-04-21T08:37:40.656Z,11.60
2023-04-21T08:40:08.095Z,11.60
2023-04-21T08:42:36.874Z,11.70
2023-04-21T08:45:04.008Z,11.60
2023-04-21T08:47:32.890Z,11.70
2023-04-21T08:50:01.725Z,11.80
2023-04-21T08:52:28.321Z,11.80
2023-04-21T08:54:56.492Z,11.90
2023-04-21T08:57:23.126Z,11.90
2023-04-21T08:59:49.760Z,11.90
2023-04-21T09:02:18.978Z,12.00
2023-04-21T09:04:54.765Z,12.10
2023-04-21T09:07:34.968Z,12.20
2023-04-21T09:10:02.953Z,12.40
2023-04-21T09:12:30.065Z,12.40
2023-04-21T09:15:00.962Z,12.40
2023-04-21T09:17:36.003Z,12.50
2023-04-21T09:20:17.780Z,12.50
2023-04-21T09:22:45.452Z,12.70
2023-04-21T09:25:17.625Z,12.80
2023-04-21T09:27:44.312Z,12.90
2023-04-21T09:30:11.376Z,13.00
2023-04-21T09:32:39.678Z,13.10
2023-04-21T09:35:10.899Z,13.10
2023-04-21T09:37:39.025Z,12.90
2023-04-21T09:40:06.533Z,13.00
2023-04-21T09:42:36.983Z,13.20
2023-04-21T09:47:42.618Z,13.20
2023-04-21T09:50:13.133Z,13.00
2023-04-21T09:52:40.261Z,13.10
2023-04-21T09:55:13.697Z,13.20
2023-04-21T09:57:42.943Z,13.20
2023-04-21T10:00:12.295Z,13.30
2023-04-21T10:02:44.589Z,13.30
2023-04-21T10:05:12.933Z,13.20
2023-04-21T10:07:39.962Z,13.20
2023-04-21T10:10:27.225Z,13.20
2023-04-21T10:12:54.489Z,13.20
2023-04-21T10:15:37.567Z,13.40
2023-04-21T10:18:21.535Z,13.60
2023-04-21T10:21:04.485Z,13.90
2023-04-21T10:23:37.068Z,14.00
2023-04-21T10:26:22.423Z,14.10
2023-04-21T10:29:00.114Z,14.20
2023-04-21T10:31:52.838Z,14.40
2023-04-21T10:34:26.401Z,14.30
2023-04-21T10:36:56.141Z,14.40
2023-04-21T10:39:28.261Z,14.40
2023-04-21T10:42:13.283Z,14.40
2023-04-21T10:44:58.563Z,14.50
2023-04-21T10:47:48.903Z,14.30
2023-04-21T10:50:17.359Z,14.20
2023-04-21T10:53:11.335Z,14.00
2023-04-21T10:55:39.249Z,14.10
2023-04-21T10:58:11.273Z,14.40
2023-04-21T11:00:38.769Z,14.80
2023-04-21T11:03:08.022Z,14.90
2023-04-21T11:05:40.505Z,15.00
2023-04-21T11:08:15.288Z,15.10
2023-04-21T11:10:55.549Z,15.20
2023-04-21T11:13:23.962Z,15.00
2023-04-21T11:15:57.894Z,15.30
2023-04-21T11:18:42.388Z,15.30
2023-04-21T11:21:12.581Z,15.40
2023-04-21T11:23:49.260Z,15.40
2023-04-21T11:26:16.240Z,15.50
2023-04-21T11:28:43.082Z,15.50
2023-04-21T11:31:10.986Z,15.40
2023-04-21T11:33:40.702Z,15.50
2023-04-21T11:36:07.825Z,15.60
2023-04-21T11:38:41.380Z,15.50
2023-04-21T11:41:10.496Z,15.50
2023-04-21T11:43:38.378Z,15.70
2023-04-21T11:46:18.699Z,15.80
2023-04-21T11:48:45.752Z,15.80
2023-04-21T11:51:20.030Z,15.90
2023-04-21T11:53:48.875Z,16.00
2023-04-21T11:56:21.623Z,16.00
2023-04-21T11:58:53.735Z,16.00
2023-04-21T12:01:21.577Z,16.00
2023-04-21T12:03:55.860Z,16.10
2023-04-21T12:06:28.598Z,16.10
2023-04-21T12:08:59.779Z,16.40
2023-04-21T12:11:30.817Z,16.80
2023-04-21T12:13:59.169Z,17.00
2023-04-21T12:16:27.949Z,17.20
2023-04-21T12:18:55.847Z,17.30
2023-04-21T12:21:27.068Z,17.30
2023-04-21T12:23:53.740Z,17.60
2023-04-21T12:26:22.415Z,17.90
2023-04-21T12:28:49.535Z,18.10
2023-04-21T12:31:16.319Z,17.80
2023-04-21T12:33:42.975Z,17.70
2023-04-21T12:36:09.997Z,17.70
2023-04-21T12:38:38.213Z,17.90
2023-04-21T12:41:05.801Z,18.40
2023-04-21T12:43:32.379Z,18.70
2023-04-21T12:45:59.924Z,18.60
2023-04-21T12:48:26.660Z,18.40
2023-04-21T12:50:53.331Z,18.60
2023-04-21T12:53:19.943Z,18.30
2023-04-21T12:55:56.863Z,18.60
2023-04-21T12:58:28.048Z,19.50
2023-04-21T13:00:55.472Z,19.50
2023-04-21T13:03:22.467Z,19.30
2023-04-21T13:05:49.575Z,19.30
2023-04-21T13:08:16.393Z,19.70
2023-04-21T13:10:43.211Z,20.10
2023-04-21T13:13:09.824Z,20.20
2023-04-21T13:15:36.597Z,20.40
2023-04-21T13:18:03.543Z,20.40
2023-04-21T13:20:30.249Z,20.60
2023-04-21T13:22:56.961Z,20.80
2023-04-21T13:25:23.779Z,20.70
2023-04-21T13:27:51.631Z,20.90
2023-04-21T13:30:19.518Z,20.90
2023-04-21T13:32:46.362Z,20.00
2023-04-21T13:35:14.123Z,18.90
2023-04-21T13:37:41.347Z,19.00
2023-04-21T13:40:10.046Z,19.00
2023-04-21T13:42:37.784Z,19.00
2023-04-21T13:45:05.362Z,19.20
2023-04-21T13:47:33.480Z,19.20
2023-04-21T13:50:00.831Z,19.20
2023-04-21T13:52:27.668Z,19.20
2023-04-21T13:54:54.501Z,19.30
2023-04-21T13:57:21.273Z,20.00
2023-04-21T13:59:48.304Z,20.00
2023-04-21T14:02:15.067Z,20.00
2023-04-21T14:04:42.191Z,20.30
2023-04-21T14:07:09.297Z,20.90
2023-04-21T14:09:36.064Z,20.40
2023-04-21T14:12:03.583Z,20.40
2023-04-21T14:14:38.770Z,21.40
2023-04-21T14:17:06.545Z,21.50
2023-04-21T14:19:34.798Z,20.60
2023-04-21T14:22:02.071Z,20.90
2023-04-21T14:24:30.015Z,21.60
2023-04-21T14:26:58.538Z,21.00
2023-04-21T14:29:25.951Z,21.00
2023-04-21T14:31:57.577Z,21.70
2023-04-21T14:34:26.011Z,21.50
2023-04-21T14:36:53.400Z,21.10
2023-04-21T14:39:20.200Z,21.70
2023-04-21T14:41:46.780Z,21.50
2023-04-21T14:44:13.390Z,21.20
2023-04-21T14:46:40.157Z,21.20
2023-04-21T14:49:06.954Z,21.90
2023-04-21T14:51:36.039Z,22.60
2023-04-21T14:54:02.729Z,23.00
2023-04-21T14:56:29.493Z,23.20
2023-04-21T14:58:56.113Z,23.40
2023-04-21T15:01:25.789Z,23.70
2023-04-21T15:03:53.193Z,23.70
2023-04-21T15:06:20.931Z,23.60
2023-04-21T15:08:47.826Z,23.90
2023-04-21T15:11:14.837Z,24.10
2023-04-21T15:13:41.558Z,24.10
2023-04-21T15:16:08.172Z,23.90
2023-04-21T15:18:34.784Z,24.00
2023-04-21T15:21:05.616Z,24.10
2023-04-21T15:23:33.638Z,24.10
2023-04-21T15:26:00.379Z,24.20
2023-04-21T15:28:27.021Z,24.20
2023-04-21T15:30:53.675Z,24.30
2023-04-21T15:33:20.486Z,24.30
2023-04-21T15:35:48.324Z,24.00
2023-04-21T15:38:14.931Z,24.40
2023-04-21T15:40:53.208Z,24.10
2023-04-21T15:43:26.685Z,24.40
2023-04-21T15:45:53.501Z,24.50
2023-04-21T15:48:21.973Z,24.40
2023-04-21T15:50:49.035Z,24.30
2023-04-21T15:53:17.800Z,24.40
2023-04-21T15:55:45.946Z,24.40
2023-04-21T15:58:13.543Z,24.00
2023-04-21T16:00:44.282Z,24.10
2023-04-21T16:03:11.033Z,24.00
2023-04-21T16:05:38.108Z,23.90
2023-04-21T16:08:04.847Z,23.70
2023-04-21T16:10:31.453Z,23.50
2023-04-21T16:12:58.066Z,23.10
2023-04-21T16:15:25.255Z,23.00
2023-04-21T16:17:52.866Z,22.90
2023-04-21T16:20:19.817Z,22.70
2023-04-21T16:22:47.925Z,22.60
2023-04-21T16:25:17.043Z,22.50
2023-04-21T16:27:43.852Z,22.30
2023-04-21T16:30:11.026Z,22.30
2023-04-21T16:32:37.753Z,22.10
2023-04-21T16:35:07.948Z,21.90
2023-04-21T16:37:40.119Z,21.70
2023-04-21T16:40:08.440Z,21.50
2023-04-21T16:42:35.991Z,21.50
2023-04-21T16:45:04.476Z,21.20
2023-04-21T16:47:41.258Z,21.10
2023-04-21T16:50:08.884Z,21.00
2023-04-21T16:52:35.698Z,21.10
2023-04-21T16:55:05.363Z,20.90
2023-04-21T16:57:32.903Z,20.80
2023-04-21T16:59:59.672Z,20.60
2023-04-21T17:02:26.420Z,20.60
2023-04-21T17:04:53.202Z,20.40
2023-04-21T17:07:19.766Z,20.40
2023-04-21T17:09:46.357Z,20.30
2023-04-21T17:12:12.985Z,20.30
2023-04-21T17:14:40.136Z,20.40
2023-04-21T17:17:07.234Z,20.20
2023-04-21T17:19:34.003Z,20.00
2023-04-21T17:22:00.885Z,20.00
2023-04-21T17:24:31.240Z,19.90
2023-04-21T17:27:04.871Z,19.80
2023-04-21T17:29:31.785Z,19.60
2023-04-21T17:31:58.646Z,19.50
2023-04-21T17:34:25.452Z,19.40
2023-04-21T17:36:52.108Z,19.40
2023-04-21T17:39:18.793Z,19.50
2023-04-21T17:41:47.109Z,19.40
2023-04-21T17:44:13.804Z,19.20
2023-04-21T17:46:41.192Z,19.20
2023-04-21T17:49:07.948Z,19.00
2023-04-21T17:51:35.985Z,18.80
2023-04-21T17:54:03.154Z,18.70
2023-04-21T17:56:29.807Z,18.50
2023-04-21T17:58:56.498Z,18.40
2023-04-21T18:01:23.282Z,18.20
2023-04-21T18:03:50.332Z,18.20
2023-04-21T18:06:17.478Z,18.10
2023-04-21T18:08:44.199Z,18.00
2023-04-21T18:11:12.162Z,18.00
2023-04-21T18:13:38.846Z,17.90
2023-04-21T18:16:05.740Z,17.80
2023-04-21T18:18:32.409Z,17.80
2023-04-21T18:20:59.676Z,17.70
2023-04-21T18:23:26.360Z,17.80
2023-04-21T18:25:55.651Z,17.70
2023-04-21T18:28:22.352Z,17.60
2023-04-21T18:30:49.098Z,17.40
2023-04-21T18:33:15.851Z,17.40
2023-04-21T18:35:42.575Z,17.30
2023-04-21T18:38:13.368Z,17.10
2023-04-21T18:40:40.753Z,17.10
2023-04-21T18:43:11.218Z,17.00
2023-04-21T18:45:38.691Z,16.90
2023-04-21T18:48:09.050Z,16.80
2023-04-21T18:50:42.165Z,16.80
2023-04-21T18:53:11.597Z,16.80
2023-04-21T18:55:49.441Z,16.60
2023-04-21T18:58:16.351Z,16.50
2023-04-21T19:00:54.349Z,16.50
2023-04-21T19:03:21.257Z,16.40
2023-04-21T19:05:59.347Z,16.40
2023-04-21T19:08:40.784Z,16.40
2023-04-21T19:11:37.610Z,16.40
2023-04-21T19:14:07.661Z,16.30
2023-04-21T19:16:43.286Z,16.10
2023-04-21T19:19:15.053Z,16.00
2023-04-21T19:21:43.101Z,16.00
2023-04-21T19:24:10.013Z,16.00
2023-04-21T19:26:36.755Z,16.00
2023-04-21T19:29:11.173Z,15.90
2023-04-21T19:31:38.830Z,15.80
2023-04-21T19:34:14.423Z,15.80
2023-04-21T19:36:44.046Z,15.70
2023-04-21T19:39:15.691Z,15.60
2023-04-21T19:41:45.734Z,15.60
2023-04-21T19:44:15.286Z,15.50
2023-04-21T19:46:46.546Z,15.40
2023-04-21T19:49:18.144Z,15.40
2023-04-21T19:51:45.003Z,15.30
2023-04-21T19:54:12.595Z,15.30
2023-04-21T19:56:40.203Z,15.20
2023-04-21T19:59:07.248Z,15.20
2023-04-21T20:01:35.786Z,15.20
2023-04-21T20:04:03.567Z,15.10
2023-04-21T20:06:31.679Z,15.10
2023-04-21T20:08:58.555Z,15.20
2023-04-21T20:11:28.780Z,15.20
2023-04-21T20:13:55.902Z,15.10
2023-04-21T20:16:23.680Z,15.00
2023-04-21T20:18:50.418Z,14.90
2023-04-21T20:21:17.065Z,14.80
2023-04-21T20:23:43.763Z,14.70
2023-04-21T20:26:10.698Z,14.60
2023-04-21T20:28:37.351Z,14.40
2023-04-21T20:31:04.077Z,14.30
2023-04-21T20:33:30.802Z,14.20
2023-04-21T20:36:02.499Z,14.20
2023-04-21T20:38:30.216Z,14.20
2023-04-21T20:40:56.790Z,14.30
2023-04-21T20:43:23.334Z,14.20
2023-04-21T20:45:50.600Z,14.10
2023-04-21T20:48:17.357Z,14.20
2023-04-21T20:50:45.969Z,14.10
2023-04-21T20:53:13.510Z,13.90
2023-04-21T20:55:40.116Z,14.00
2023-04-21T20:58:06.651Z,14.10
2023-04-21T21:00:34.570Z,14.10
2023-04-21T21:03:01.493Z,14.10
2023-04-21T21:05:33.202Z,14.00
2023-04-21T21:07:59.876Z,14.00
2023-04-21T21:10:26.758Z,13.90
2023-04-21T21:12:53.451Z,14.00
2023-04-21T21:15:20.100Z,13.90
2023-04-21T21:17:46.743Z,13.80
2023-04-21T21:20:13.379Z,13.80
2023-04-21T21:22:40.015Z,13.70
2023-04-21T21:25:06.927Z,13.60
2023-04-21T21:27:33.538Z,13.70
2023-04-21T21:30:00.157Z,13.70
2023-04-21T21:32:26.837Z,13.70
2023-04-21T21:34:53.522Z,13.60
2023-04-21T21:37:21.043Z,13.50
2023-04-21T21:39:47.865Z,13.50
2023-04-21T21:42:14.462Z,13.30
2023-04-21T21:44:41.012Z,13.30
2023-04-21T21:47:07.637Z,13.20
2023-04-21T21:49:34.316Z,13.00
2023-04-21T21:52:02.402Z,12.80
2023-04-21T21:54:28.993Z,12.80
2023-04-21T21:56:56.188Z,12.80
2023-04-21T21:59:22.965Z,12.80
2023-04-21T22:01:50.974Z,13.00
2023-04-21T22:04:17.711Z,12.90
2023-04-21T22:06:45.349Z,12.90
2023-04-21T22:09:12.050Z,12.90
2023-04-21T22:11:38.746Z,13.00
2023-04-21T22:14:18.623Z,13.10
2023-04-21T22:16:50.451Z,13.00
2023-04-21T22:19:18.935Z,13.00
2023-04-21T22:21:45.966Z,12.90
2023-04-21T22:24:12.721Z,12.90
2023-04-21T22:26:39.333Z,12.80
2023-04-21T22:29:05.931Z,12.90
2023-04-21T22:31:32.793Z,12.90
2023-04-21T22:33:59.498Z,12.80
2023-04-21T22:36:26.117Z,12.90
2023-04-21T22:38:52.727Z,12.80
2023-04-21T22:41:19.511Z,12.80
2023-04-21T22:43:46.138Z,12.80
2023-04-21T22:46:12.960Z,12.90
2023-04-21T22:48:39.722Z,12.90
2023-04-21T22:51:07.302Z,12.80
2023-04-21T22:53:34.102Z,12.80
2023-04-21T22:56:00.726Z,12.60
2023-04-21T22:58:27.388Z,12.60
2023-04-21T23:00:54.112Z,12.70
2023-04-21T23:03:21.727Z,12.70
2023-04-21T23:05:48.424Z,12.80
2023-04-21T23:08:15.111Z,12.90
2023-04-21T23:10:41.798Z,12.90
2023-04-21T23:13:08.473Z,12.90
2023-04-21T23:15:35.198Z,12.90
2023-04-21T23:18:02.609Z,12.90
2023-04-21T23:20:29.254Z,12.90
2023-04-21T23:22:55.919Z,12.90
2023-04-21T23:25:22.984Z,12.80
2023-04-21T23:27:49.700Z,12.80
2023-04-21T23:30:16.442Z,12.80
2023-04-21T23:32:43.691Z,12.70
2023-04-21T23:35:10.675Z,12.70
2023-04-21T23:37:37.389Z,12.70
2023-04-21T23:40:08.897Z,12.80
2023-04-21T23:42:36.154Z,12.80
2023-04-21T23:45:03.602Z,12.80
2023-04-21T23:47:30.704Z,12.70
2023-04-21T23:49:57.697Z,12.70
2023-04-21T23:52:24.395Z,12.70
2023-04-21T23:54:51.180Z,12.60
2023-04-21T23:57:18.524Z,12.60
2023-04-21T23:59:45.733Z,12.60
